Time;durP1;ratioP1;P1;durP2;ratioP2;P2;SDS_P1;SDS_P2;PMS_P1;PMS_P2;Temp;Humidity;BMP_temperature;BMP_pressure;BME280_temperature;BME280_humidity;BME280_pressure;Samples;Min_cycle;Max_cycle;Signal;HPM_P1;HPM_P2
2022/01/15 00:00:36;;;;;;;18.40;8.15;;;;;;;3.39;96.38;102498.09;7398592;19;20498;-66
2022/01/15 00:03:06;;;;;;;14.90;7.65;;;;;;;3.36;96.49;102498.84;7399193;19;20026;-66
2022/01/15 00:05:35;;;;;;;19.52;8.27;;;;;;;3.34;96.52;102495.31;7397604;19;20487;-66
2022/01/15 00:08:05;;;;;;;19.13;8.52;;;;;;;3.32;96.59;102501.28;7397890;19;20014;-66
2022/01/15 00:10:33;;;;;;;19.25;9.20;;;;;;;3.30;96.87;102496.03;7397463;19;20498;-66
2022/01/15 00:13:07;;;;;;;26.67;12.93;;;;;;;3.28;96.87;102495.09;7397843;19;20030;-66
2022/01/15 00:15:46;;;;;;;26.15;13.90;;;;;;;3.27;97.08;102495.91;7398005;19;20022;-66
2022/01/15 00:18:15;;;;;;;19.52;9.70;;;;;;;3.25;96.88;102492.41;7397644;19;20400;-66
2022/01/15 00:20:44;;;;;;;20.05;8.07;;;;;;;3.27;97.16;102498.50;7397564;19;20097;-66
2022/01/15 00:23:12;;;;;;;20.70;7.72;;;;;;;3.26;97.20;102496.72;7395996;19;20010;-65
2022/01/15 00:25:40;;;;;;;19.35;8.43;;;;;;;3.26;96.97;102489.84;7397171;19;20010;-66
2022/01/15 00:28:08;;;;;;;16.98;7.85;;;;;;;3.26;97.00;102492.44;7398051;19;20011;-66
2022/01/15 00:30:39;;;;;;;17.67;8.88;;;;;;;3.25;97.12;102482.88;7397219;19;20014;-66
2022/01/15 00:33:07;;;;;;;17.73;8.65;;;;;;;3.24;97.06;102481.13;7397484;19;20022;-65
2022/01/15 00:35:37;;;;;;;18.02;8.60;;;;;;;3.21;97.05;102486.22;7394906;19;20018;-66
2022/01/15 00:38:05;;;;;;;17.70;8.68;;;;;;;3.20;97.17;102489.63;7396996;19;20014;-66
2022/01/15 00:40:33;;;;;;;18.73;8.85;;;;;;;3.19;97.24;102490.44;7396896;19;20023;-66
2022/01/15 00:43:02;;;;;;;20.30;8.38;;;;;;;3.18;97.37;102490.38;7396854;19;20014;-66
2022/01/15 00:45:33;;;;;;;17.20;7.90;;;;;;;3.15;97.38;102492.88;7396589;19;20015;-65
2022/01/15 00:48:04;;;;;;;17.90;7.82;;;;;;;3.12;97.37;102483.25;7396353;19;20494;-66
2022/01/15 00:50:32;;;;;;;17.33;7.70;;;;;;;3.11;97.48;102484.09;7397032;19;20018;-65
2022/01/15 00:53:00;;;;;;;18.95;8.20;;;;;;;3.10;97.37;102492.69;7394392;19;20040;-65
2022/01/15 00:55:29;;;;;;;20.45;7.57;;;;;;;3.08;97.61;102489.16;7394818;19;20031;-65
2022/01/15 00:57:57;;;;;;;21.65;10.57;;;;;;;3.06;97.36;102486.50;7396374;19;20014;-65
2022/01/15 01:00:27;;;;;;;12.82;7.20;;;;;;;2.98;97.40;102489.66;7397026;19;20014;-65
2022/01/15 01:02:56;;;;;;;16.00;7.50;;;;;;;3.03;97.61;102496.78;7396644;19;20027;-65
2022/01/15 01:05:27;;;;;;;17.88;7.57;;;;;;;2.99;97.31;102481.91;7395733;19;20484;-65
2022/01/15 01:07:56;;;;;;;21.33;7.43;;;;;;;2.97;97.43;102486.19;7396522;19;20022;-65
2022/01/15 01:10:48;;;;;;;17.70;7.90;;;;;;;2.90;97.56;102474.69;7396111;19;20019;-65
2022/01/15 01:21:57;;;;;;;21.52;6.50;;;;;;;2.84;97.48;102481.34;7396461;19;20021;-66
2022/01/15 01:24:16;;;;;;;13.63;6.55;;;;;;;2.79;97.30;102470.78;7393357;19;20017;-65
2022/01/15 01:26:49;;;;;;;19.52;7.93;;;;;;;2.74;97.33;102482.69;7394647;19;20019;-65
2022/01/15 01:29:28;;;;;;;17.52;6.63;;;;;;;2.69;97.07;102479.03;7395857;19;20032;-65
2022/01/15 01:32:02;;;;;;;18.67;6.78;;;;;;;2.65;97.21;102477.16;7395927;19;20040;-65
2022/01/15 01:34:34;;;;;;;20.42;6.90;;;;;;;2.58;97.26;102474.34;7395148;19;20014;-65
2022/01/15 01:37:12;;;;;;;18.88;6.72;;;;;;;2.53;97.31;102477.59;7394322;19;20018;-65
2022/01/15 01:39:45;;;;;;;15.85;5.40;;;;;;;2.45;97.22;102474.66;7395700;19;20014;-65
2022/01/15 01:42:33;;;;;;;19.53;6.90;;;;;;;2.45;97.19;102487.63;7395778;19;20036;-65
2022/01/15 01:45:05;;;;;;;22.60;7.07;;;;;;;2.38;97.18;102486.50;7395584;19;20029;-65
2022/01/15 01:47:39;;;;;;;19.33;6.10;;;;;;;2.35;97.49;102494.16;7393488;19;20015;-65
2022/01/15 01:50:11;;;;;;;19.40;6.32;;;;;;;2.31;97.28;102497.44;7395419;19;20082;-65
2022/01/15 01:52:43;;;;;;;19.45;6.15;;;;;;;2.27;97.62;102490.38;7394960;19;20380;-65
2022/01/15 01:55:13;;;;;;;20.25;5.88;;;;;;;2.24;97.68;102485.06;7394022;19;20018;-65
2022/01/15 01:57:42;;;;;;;21.05;6.80;;;;;;;2.19;97.33;102484.00;7393002;19;20018;-66
2022/01/15 02:00:14;;;;;;;17.77;5.70;;;;;;;2.17;97.70;102481.31;7394794;19;20019;-66
2022/01/15 02:02:42;;;;;;;15.85;6.43;;;;;;;2.15;97.58;102485.56;7395152;19;20015;-65
2022/01/15 02:05:12;;;;;;;21.38;6.28;;;;;;;2.10;97.92;102477.59;7399599;19;20011;-65
2022/01/15 02:07:43;;;;;;;26.77;7.45;;;;;;;2.06;97.95;102486.09;7399519;19;20014;-66
2022/01/15 02:10:14;;;;;;;18.77;6.43;;;;;;;2.04;97.74;102492.03;7402345;19;20014;-65
2022/01/15 02:12:55;;;;;;;27.73;6.78;;;;;;;1.94;97.78;102470.91;7402618;19;20090;-65
2022/01/15 02:15:25;;;;;;;17.75;6.40;;;;;;;1.98;98.04;102476.22;7400235;19;20015;-65
2022/01/15 02:17:54;;;;;;;22.23;6.82;;;;;;;1.93;97.92;102471.75;7398970;19;20014;-65
2022/01/15 02:21:00;;;;;;;26.50;5.50;;;;;;;1.83;97.89;102461.81;7402411;19;20040;-65
2022/01/15 02:23:33;;;;;;;21.05;5.97;;;;;;;1.86;97.97;102472.31;7399351;19;20025;-65
2022/01/15 02:26:04;;;;;;;19.92;6.40;;;;;;;1.82;97.89;102467.84;7401174;19;20014;-66
2022/01/15 02:28:35;;;;;;;18.15;5.43;;;;;;;1.79;98.06;102466.00;7401882;19;20029;-65
2022/01/15 02:31:06;;;;;;;17.67;5.68;;;;;;;1.76;98.02;102476.19;7402385;19;20027;-65
2022/01/15 02:33:35;;;;;;;33.50;6.03;;;;;;;1.75;98.09;102473.56;7401412;19;20027;-65
2022/01/15 02:36:07;;;;;;;25.55;5.97;;;;;;;1.72;98.43;102465.66;7398525;19;20019;-64
2022/01/15 02:38:36;;;;;;;21.40;6.40;;;;;;;1.68;98.16;102477.59;7400849;19;20507;-65
2022/01/15 02:41:04;;;;;;;18.02;5.72;;;;;;;1.67;98.31;102465.47;7401056;19;20436;-65
2022/01/15 02:43:33;;;;;;;28.00;6.40;;;;;;;1.63;98.33;102474.81;7400892;19;20010;-66
2022/01/15 02:46:18;;;;;;;25.40;6.03;;;;;;;1.61;98.43;102471.25;7400142;19;20014;-66
2022/01/15 02:48:47;;;;;;;22.50;5.90;;;;;;;1.57;98.31;102464.19;7402063;19;20018;-66
2022/01/15 02:51:19;;;;;;;24.42;6.10;;;;;;;1.55;98.26;102468.41;7400702;19;20031;-66
2022/01/15 02:53:54;;;;;;;30.80;7.07;;;;;;;1.53;98.27;102471.75;7400873;19;20015;-66
2022/01/15 02:56:24;;;;;;;22.15;5.45;;;;;;;1.51;98.20;102470.81;7397419;19;20480;-66
2022/01/15 02:58:52;;;;;;;28.05;6.47;;;;;;;1.49;98.36;102472.44;7401691;19;20014;-67
2022/01/15 03:01:21;;;;;;;24.02;6.40;;;;;;;1.48;98.40;102470.66;7403838;19;20014;-65
2022/01/15 03:03:49;;;;;;;29.60;6.05;;;;;;;1.46;98.50;102466.28;7402052;19;20014;-65
2022/01/15 03:06:22;;;;;;;19.45;5.70;;;;;;;1.44;98.21;102473.13;7399799;19;20046;-66
2022/01/15 03:08:52;;;;;;;27.60;6.50;;;;;;;1.43;98.23;102473.06;7400447;19;20025;-65
2022/01/15 03:11:22;;;;;;;32.03;6.22;;;;;;;1.40;98.38;102466.06;7399931;19;20500;-66
2022/01/15 03:13:50;;;;;;;28.20;6.53;;;;;;;1.39;98.38;102468.56;7399754;19;20006;-65
2022/01/15 03:16:22;;;;;;;26.58;5.85;;;;;;;1.34;98.04;102470.97;7395488;19;20015;-64
2022/01/15 03:18:51;;;;;;;29.95;6.15;;;;;;;1.34;98.19;102478.72;7400152;19;20011;-66
2022/01/15 03:21:22;;;;;;;25.52;6.03;;;;;;;1.29;98.45;102475.91;7399626;19;20014;-65
2022/01/15 03:23:50;;;;;;;25.33;5.50;;;;;;;1.30;98.48;102485.44;7397101;19;20479;-65
2022/01/15 03:26:18;;;;;;;27.80;6.10;;;;;;;1.29;98.23;102480.22;7398791;19;20027;-65
2022/01/15 03:28:46;;;;;;;26.35;6.65;;;;;;;1.28;98.39;102481.03;7399588;19;20015;-65
2022/01/15 03:31:15;;;;;;;28.27;6.57;;;;;;;1.26;98.33;102480.97;7398910;19;20572;-65
2022/01/15 03:33:43;;;;;;;27.80;7.10;;;;;;;1.24;98.37;102476.50;7399303;19;20023;-65
2022/01/15 03:36:11;;;;;;;25.27;6.32;;;;;;;1.23;98.50;102469.59;7396696;19;20369;-65
2022/01/15 03:38:42;;;;;;;32.13;6.43;;;;;;;1.21;98.42;102463.47;7398961;19;20016;-65
2022/01/15 03:41:11;;;;;;;33.33;7.45;;;;;;;1.21;98.56;102464.34;7399042;19;20019;-65
2022/01/15 03:43:39;;;;;;;29.65;8.02;;;;;;;1.22;98.44;102460.06;7398881;19;20010;-65
2022/01/15 03:46:07;;;;;;;34.22;7.35;;;;;;;1.23;98.41;102467.00;7398130;19;20031;-65
2022/01/15 03:48:35;;;;;;;27.88;7.10;;;;;;;1.23;98.61;102469.59;7398578;19;20027;-65
2022/01/15 03:51:04;;;;;;;28.85;6.93;;;;;;;1.25;98.66;102455.00;7398738;19;20042;-66
2022/01/15 03:53:33;;;;;;;34.20;7.57;;;;;;;1.25;98.44;102457.59;7398360;19;20355;-66
2022/01/15 03:56:04;;;;;;;26.50;8.15;;;;;;;1.25;98.64;102453.34;7396833;19;20019;-65
2022/01/15 03:58:32;;;;;;;29.77;7.43;;;;;;;1.25;98.44;102440.41;7398634;19;20024;-64
2022/01/15 04:01:00;;;;;;;37.72;7.32;;;;;;;1.23;98.40;102430.81;7398393;19;20010;-66
2022/01/15 04:03:28;;;;;;;30.38;6.72;;;;;;;1.22;98.50;102435.06;7398219;19;20022;-65
2022/01/15 04:05:56;;;;;;;35.55;7.70;;;;;;;1.20;98.49;102420.31;7397675;19;20022;-65
2022/01/15 04:08:24;;;;;;;35.28;6.93;;;;;;;1.18;98.21;102420.25;7398107;19;20035;-65
2022/01/15 04:10:59;;;;;;;35.42;9.90;;;;;;;1.15;98.31;102425.31;7398014;19;20034;-65
2022/01/15 04:13:30;;;;;;;26.52;6.80;;;;;;;1.11;98.51;102421.69;7397959;19;20019;-65
2022/01/15 04:16:00;;;;;;;24.20;5.40;;;;;;;1.08;98.22;102416.38;7396578;19;20027;-65
2022/01/15 04:18:30;;;;;;;35.53;6.13;;;;;;;1.04;98.21;102406.72;7397874;19;20015;-65
2022/01/15 04:20:58;;;;;;;29.88;6.07;;;;;;;1.00;97.98;102410.00;7397716;19;20041;-65
2022/01/15 04:23:26;;;;;;;22.08;6.10;;;;;;;0.94;97.85;102404.56;7396161;19;20021;-65
2022/01/15 04:25:54;;;;;;;24.70;6.75;;;;;;;0.91;98.11;102406.97;7397000;19;20019;-66
2022/01/15 04:28:23;;;;;;;32.42;6.95;;;;;;;0.85;97.87;102410.19;7397324;19;20025;-65
2022/01/15 04:30:54;;;;;;;49.83;17.25;;;;;;;0.80;97.45;102414.28;7397458;19;20018;-66
2022/01/15 04:33:22;;;;;;;65.28;20.38;;;;;;;0.73;97.69;102419.97;7397657;19;20036;-66
2022/01/15 04:35:50;;;;;;;47.63;17.70;;;;;;;0.68;97.78;102422.31;7395993;19;20041;-65
2022/01/15 04:38:18;;;;;;;62.00;19.55;;;;;;;0.64;97.86;102425.59;7397062;19;20040;-66
2022/01/15 04:40:46;;;;;;;60.53;23.63;;;;;;;0.59;98.09;102424.50;7396579;19;20018;-65
2022/01/15 04:43:15;;;;;;;40.53;12.55;;;;;;;0.55;98.07;102426.03;7396837;19;20014;-65
2022/01/15 04:45:43;;;;;;;31.63;9.50;;;;;;;0.50;97.91;102430.13;7396609;19;20018;-66
2022/01/15 04:48:14;;;;;;;45.63;10.63;;;;;;;0.45;98.16;102442.81;7396785;19;20015;-66
2022/01/15 04:50:42;;;;;;;59.88;19.00;;;;;;;0.43;97.97;102438.38;7396428;19;20362;-66
2022/01/15 04:53:11;;;;;;;61.85;17.77;;;;;;;0.39;98.23;102432.22;7396602;19;20018;-65
2022/01/15 04:55:40;;;;;;;42.10;11.82;;;;;;;0.35;97.86;102422.53;7395299;19;20479;-66
2022/01/15 04:58:09;;;;;;;45.97;12.60;;;;;;;0.31;97.69;102425.78;7396731;19;20006;-65
2022/01/15 05:00:38;;;;;;;31.30;9.35;;;;;;;0.26;97.81;102419.53;7396770;19;20019;-65
2022/01/15 05:03:07;;;;;;;35.70;8.45;;;;;;;0.22;97.75;102420.19;7396417;19;20115;-65
2022/01/15 05:05:38;;;;;;;30.48;6.20;;;;;;;0.17;97.67;102416.50;7396042;19;20022;-66
2022/01/15 05:08:10;;;;;;;28.23;6.40;;;;;;;0.13;97.54;102412.91;7395951;19;20345;-66
2022/01/15 05:10:47;;;;;;;27.63;5.88;;;;;;;0.06;97.44;102405.66;7396511;19;20018;-66
2022/01/15 05:13:20;;;;;;;27.98;6.05;;;;;;;0.02;97.76;102409.78;7396492;19;20018;-66
2022/01/15 05:15:49;;;;;;;30.90;6.07;;;;;;;-0.02;97.64;102411.31;7394801;19;20400;-66
2022/01/15 05:18:18;;;;;;;23.17;5.82;;;;;;;-0.06;97.65;102409.41;7395929;19;20036;-65
2022/01/15 05:20:49;;;;;;;33.55;5.65;;;;;;;-0.10;97.64;102415.25;7395611;19;20014;-66
2022/01/15 05:23:17;;;;;;;27.60;5.90;;;;;;;-0.12;97.66;102424.59;7394961;19;20082;-65
2022/01/15 05:25:45;;;;;;;24.80;5.93;;;;;;;-0.14;97.69;102417.59;7395216;19;20479;-65
2022/01/15 05:28:14;;;;;;;26.38;6.57;;;;;;;-0.16;97.72;102430.41;7395072;19;20572;-66
2022/01/15 05:30:42;;;;;;;27.73;6.28;;;;;;;-0.18;97.93;102432.03;7395099;19;20364;-65
2022/01/15 05:33:10;;;;;;;23.02;5.65;;;;;;;-0.22;97.92;102433.56;7394953;19;20382;-65
2022/01/15 05:35:38;;;;;;;21.75;5.50;;;;;;;-0.23;98.04;102436.97;7394449;19;20022;-66
2022/01/15 05:38:09;;;;;;;25.77;7.00;;;;;;;-0.26;97.78;102435.94;7395432;19;20040;-66
2022/01/15 05:40:38;;;;;;;23.88;6.10;;;;;;;-0.28;98.01;102441.00;7408916;19;20010;-66
2022/01/15 05:43:06;;;;;;;24.73;6.53;;;;;;;-0.30;97.70;102442.63;7409449;19;20022;-65
2022/01/15 05:45:34;;;;;;;24.10;6.20;;;;;;;-0.31;97.84;102446.00;7408193;19;20486;-65
2022/01/15 05:48:02;;;;;;;34.97;6.95;;;;;;;-0.37;97.89;102436.28;7409397;19;20015;-66
2022/01/15 05:50:30;;;;;;;22.83;7.15;;;;;;;-0.33;98.23;102447.63;7408950;19;20487;-66
2022/01/15 05:52:59;;;;;;;23.58;6.45;;;;;;;-0.32;98.13;102454.56;7409291;19;20018;-66
2022/01/15 05:55:29;;;;;;;26.38;5.57;;;;;;;-0.31;98.41;102456.34;7409400;19;20014;-65
2022/01/15 05:57:58;;;;;;;27.65;7.45;;;;;;;-0.32;98.07;102457.13;7409868;19;20038;-65
2022/01/15 06:00:26;;;;;;;33.63;7.45;;;;;;;-0.31;98.28;102456.34;7408727;19;20519;-65
2022/01/15 06:02:54;;;;;;;36.17;7.40;;;;;;;-0.31;98.03;102450.31;7408776;19;20482;-66
2022/01/15 06:05:23;;;;;;;29.13;7.43;;;;;;;-0.31;98.35;102455.47;7408981;19;20348;-67
2022/01/15 06:07:51;;;;;;;27.30;7.97;;;;;;;-0.30;98.42;102458.09;7406907;19;20040;-65
2022/01/15 06:10:19;;;;;;;32.97;7.95;;;;;;;-0.29;98.28;102453.81;7408789;19;20011;-65
2022/01/15 06:12:50;;;;;;;33.15;7.35;;;;;;;-0.35;98.47;102447.53;7408942;19;20019;-65
2022/01/15 06:15:19;;;;;;;30.95;8.52;;;;;;;-0.28;98.34;102459.06;7409355;19;20036;-66
2022/01/15 06:17:47;;;;;;;38.97;9.05;;;;;;;-0.29;98.32;102454.72;7407642;19;20022;-65
2022/01/15 06:20:17;;;;;;;34.35;9.18;;;;;;;-0.28;98.51;102464.22;7409408;19;20033;-65
2022/01/15 06:22:45;;;;;;;30.45;8.30;;;;;;;-0.27;98.48;102460.81;7408387;19;20006;-66
2022/01/15 06:25:14;;;;;;;35.95;8.25;;;;;;;-0.27;98.28;102455.66;7408779;19;20032;-65
2022/01/15 06:27:42;;;;;;;32.17;8.85;;;;;;;-0.27;98.47;102452.22;7406287;19;20019;-66
2022/01/15 06:30:14;;;;;;;42.97;9.70;;;;;;;-0.27;98.49;102453.09;7407801;19;20014;-68
2022/01/15 06:32:42;;;;;;;24.08;6.75;;;;;;;-0.28;98.30;102455.59;7408198;19;20036;-64
2022/01/15 06:35:13;;;;;;;36.08;8.52;;;;;;;-0.29;98.31;102459.88;7407960;19;20031;-64
2022/01/15 06:37:42;;;;;;;37.53;7.63;;;;;;;-0.32;97.95;102454.56;7405989;19;20041;-65
2022/01/15 06:40:11;;;;;;;25.75;7.65;;;;;;;-0.35;98.30;102457.88;7407877;19;20032;-64
2022/01/15 06:42:40;;;;;;;29.23;6.78;;;;;;;-0.39;98.08;102457.63;7407832;19;20036;-65
2022/01/15 06:45:09;;;;;;;47.47;7.10;;;;;;;-0.42;98.03;102467.78;7408090;19;20032;-65
2022/01/15 06:47:40;;;;;;;56.63;7.40;;;;;;;-0.46;98.03;102465.88;7405925;19;20018;-65
2022/01/15 06:50:10;;;;;;;28.80;5.78;;;;;;;-0.50;97.79;102464.81;7405744;19;20022;-65
2022/01/15 06:52:40;;;;;;;22.08;5.43;;;;;;;-0.56;97.77;102460.22;7400006;19;20031;-65
2022/01/15 06:55:11;;;;;;;79.05;28.25;;;;;;;-0.58;97.94;102461.84;7399859;19;20486;-65
2022/01/15 06:57:40;;;;;;;51.65;14.32;;;;;;;-0.61;97.99;102451.38;7397435;19;20519;-64
2022/01/15 07:00:11;;;;;;;35.42;5.85;;;;;;;-0.64;98.32;102451.22;7400477;19;20015;-65
2022/01/15 07:02:42;;;;;;;24.38;5.70;;;;;;;-0.67;98.07;102456.19;7400755;19;20014;-65
2022/01/15 07:05:32;;;;;;;28.20;5.10;;;;;;;-0.71;98.32;102465.50;7400311;19;20011;-65
2022/01/15 07:08:02;;;;;;;36.45;7.07;;;;;;;-0.75;98.12;102462.66;7400203;19;20036;-65
2022/01/15 07:10:30;;;;;;;21.35;5.55;;;;;;;-0.78;97.85;102468.56;7399814;19;20023;-66
2022/01/15 07:12:59;;;;;;;20.80;5.28;;;;;;;-0.82;98.00;102464.03;7399984;19;20010;-65
2022/01/15 07:15:27;;;;;;;25.55;4.60;;;;;;;-0.86;97.94;102464.66;7399917;19;20361;-64
2022/01/15 07:17:59;;;;;;;53.95;21.88;;;;;;;-0.89;98.15;102470.53;7399699;19;20011;-65
2022/01/15 07:20:28;;;;;;;38.03;14.02;;;;;;;-0.89;98.31;102465.38;7399694;19;20022;-65
2022/01/15 07:23:09;;;;;;;18.90;6.05;;;;;;;-0.90;98.46;102473.91;7398726;19;20019;-65
2022/01/15 07:25:37;;;;;;;16.88;5.55;;;;;;;-0.93;98.17;102476.34;7399663;19;20019;-65
2022/01/15 07:28:06;;;;;;;15.65;5.75;;;;;;;-0.95;98.29;102477.06;7399798;19;20037;-65
2022/01/15 07:30:35;;;;;;;17.23;7.10;;;;;;;-0.98;98.18;102478.66;7399082;19;20015;-65
2022/01/15 07:33:06;;;;;;;17.65;6.55;;;;;;;-1.00;98.42;102484.53;7398932;19;20014;-65
2022/01/15 07:35:34;;;;;;;14.05;5.22;;;;;;;-1.02;97.87;102483.59;7398555;19;20479;-65
2022/01/15 07:38:02;;;;;;;17.98;4.63;;;;;;;-1.05;98.02;102476.59;7398658;19;20019;-65
2022/01/15 07:40:31;;;;;;;22.48;6.20;;;;;;;-1.07;98.14;102479.88;7398788;19;20040;-65
2022/01/15 07:42:59;;;;;;;18.38;6.05;;;;;;;-1.09;97.97;102482.34;7398367;19;20010;-65
2022/01/15 07:45:27;;;;;;;16.08;5.68;;;;;;;-1.11;98.04;102480.50;7398635;19;20025;-66
2022/01/15 07:47:55;;;;;;;15.55;5.07;;;;;;;-1.12;98.22;102486.50;7398675;19;20018;-67
2022/01/15 07:50:26;;;;;;;16.50;5.50;;;;;;;-1.12;98.08;102489.94;7398651;19;20010;-67
2022/01/15 07:52:55;;;;;;;12.48;6.38;;;;;;;-1.11;98.22;102493.38;7398878;19;20018;-67
2022/01/15 07:55:23;;;;;;;17.77;6.20;;;;;;;-1.12;98.44;102494.22;7398430;19;20030;-67
2022/01/15 07:57:52;;;;;;;13.60;5.65;;;;;;;-1.11;98.42;102499.44;7396150;19;20449;-66
2022/01/15 08:00:21;;;;;;;16.25;6.38;;;;;;;-1.12;98.22;102492.50;7398253;19;20375;-67
2022/01/15 08:02:49;;;;;;;14.93;6.18;;;;;;;-1.10;98.34;102501.22;7397228;19;20032;-67
2022/01/15 08:05:17;;;;;;;15.73;5.90;;;;;;;-1.09;98.33;102494.38;7397877;19;20015;-66
2022/01/15 08:07:48;;;;;;;17.85;6.65;;;;;;;-1.10;98.53;102497.75;7395904;19;20040;-66
2022/01/15 08:10:16;;;;;;;15.75;6.05;;;;;;;-1.09;98.51;102507.25;7398301;19;20023;-67
2022/01/15 08:12:46;;;;;;;20.85;7.80;;;;;;;-1.08;98.25;102511.59;7397707;19;20015;-67
2022/01/15 08:15:15;;;;;;;20.80;8.50;;;;;;;-1.10;98.09;102505.47;7398088;19;20077;-66
2022/01/15 08:17:44;;;;;;;21.17;9.32;;;;;;;-1.10;98.19;102508.94;7395498;19;20092;-66
2022/01/15 08:20:14;;;;;;;22.23;9.63;;;;;;;-1.11;98.39;102506.25;7397231;19;20494;-66
2022/01/15 08:22:44;;;;;;;26.75;12.45;;;;;;;-1.09;98.47;102508.13;7397346;19;20019;-66
2022/01/15 08:25:25;;;;;;;20.77;11.52;;;;;;;-1.08;98.33;102504.75;7395382;19;20040;-66
2022/01/15 08:27:55;;;;;;;22.08;10.13;;;;;;;-1.07;98.23;102508.22;7395293;19;20014;-66
2022/01/15 08:30:24;;;;;;;17.25;9.15;;;;;;;-1.06;98.49;102507.41;7396574;19;20487;-66
2022/01/15 08:32:53;;;;;;;16.02;7.43;;;;;;;-1.04;98.22;102505.81;7397075;19;20014;-67
2022/01/15 08:35:21;;;;;;;18.38;9.32;;;;;;;-1.03;98.46;102510.16;7396578;19;20479;-67
2022/01/15 08:37:50;;;;;;;193.98;87.00;;;;;;;-1.06;98.39;102502.25;7394931;19;20014;-67
2022/01/15 08:40:22;;;;;;;61.65;26.60;;;;;;;-1.00;98.40;102507.75;7396914;19;20021;-68
2022/01/15 08:42:51;;;;;;;21.02;9.07;;;;;;;-0.96;98.44;102504.53;7396131;19;20487;-64
2022/01/15 08:45:20;;;;;;;23.40;7.03;;;;;;;-0.94;98.42;102505.50;7396480;19;20014;-65
2022/01/15 08:47:48;;;;;;;17.02;6.53;;;;;;;-0.91;98.39;102507.34;7394302;19;20014;-67
2022/01/15 08:50:17;;;;;;;22.15;9.95;;;;;;;-0.90;98.52;102503.97;7395717;19;20492;-65
2022/01/15 08:52:45;;;;;;;24.75;12.00;;;;;;;-0.88;98.56;102503.25;7396013;19;20406;-65
2022/01/15 08:55:15;;;;;;;23.40;12.75;;;;;;;-0.86;98.54;102504.22;7396064;19;20018;-65
2022/01/15 08:57:46;;;;;;;27.92;10.20;;;;;;;-0.84;98.47;102510.31;7393852;19;20015;-66
2022/01/15 09:00:18;;;;;;;20.98;7.93;;;;;;;-0.81;98.42;102519.91;7396562;19;20021;-66
2022/01/15 09:02:46;;;;;;;19.35;8.13;;;;;;;-0.78;98.50;102522.69;7396426;19;20018;-66
2022/01/15 09:05:15;;;;;;;22.10;8.02;;;;;;;-0.76;98.36;102515.88;7396264;19;20010;-66
2022/01/15 09:07:43;;;;;;;20.75;7.85;;;;;;;-0.72;98.32;102525.59;7394388;19;20044;-66
2022/01/15 09:10:12;;;;;;;25.85;6.97;;;;;;;-0.70;98.57;102523.09;7395919;19;20015;-66
2022/01/15 09:12:40;;;;;;;21.65;6.95;;;;;;;-0.67;98.40;102524.13;7395841;19;20018;-66
2022/01/15 09:15:12;;;;;;;20.33;6.45;;;;;;;-0.62;98.41;102520.91;7394850;19;20018;-66
2022/01/15 09:17:40;;;;;;;16.25;6.13;;;;;;;-0.58;98.69;102521.16;7396083;19;20025;-65
2022/01/15 09:20:09;;;;;;;24.90;6.88;;;;;;;-0.54;98.55;102514.47;7396303;19;20019;-65
2022/01/15 09:22:37;;;;;;;26.65;8.57;;;;;;;-0.50;98.74;102516.41;7395755;19;20036;-66
2022/01/15 09:25:07;;;;;;;24.15;8.48;;;;;;;-0.46;98.46;102510.59;7394093;19;20075;-66
2022/01/15 09:30:19;;;;;;;18.45;6.35;;;;;;;-0.35;98.73;102512.03;7395500;19;20019;-66
2022/01/15 09:32:49;;;;;;;27.73;8.30;;;;;;;-0.29;98.65;102520.88;7395369;19;20015;-66
2022/01/15 09:35:23;;;;;;;21.88;7.30;;;;;;;-0.24;98.63;102520.34;7395817;19;20011;-66
2022/01/15 09:37:52;;;;;;;21.02;6.13;;;;;;;-0.24;98.70;102504.84;7393398;19;20040;-66
2022/01/15 09:40:22;;;;;;;18.70;6.50;;;;;;;-0.12;98.83;102519.19;7394889;19;20040;-66
2022/01/15 09:42:51;;;;;;;22.73;7.13;;;;;;;-0.07;98.65;102522.88;7395323;19;20015;-66
2022/01/15 09:45:23;;;;;;;21.05;7.05;;;;;;;0.01;98.75;102518.97;7394781;19;20037;-66
2022/01/15 09:47:57;;;;;;;25.95;6.97;;;;;;;0.10;99.01;102511.72;7393160;19;20042;-66
2022/01/15 09:50:28;;;;;;;19.02;6.03;;;;;;;0.17;98.76;102519.75;7395475;19;20034;-66
2022/01/15 09:52:57;;;;;;;21.08;6.72;;;;;;;0.24;98.66;102519.22;7395356;19;20010;-66
2022/01/15 09:55:26;;;;;;;28.13;12.98;;;;;;;0.30;98.79;102516.97;7394813;19;20023;-66
2022/01/15 09:57:55;;;;;;;26.55;13.50;;;;;;;0.34;98.71;102516.28;7392369;19;20366;-66
2022/01/15 10:00:28;;;;;;;27.80;11.77;;;;;;;0.39;98.56;102520.00;7394290;19;20519;-66
2022/01/15 10:02:57;;;;;;;24.73;11.73;;;;;;;0.45;98.57;102512.53;7394980;19;20025;-66
2022/01/15 10:05:26;;;;;;;28.08;12.35;;;;;;;0.48;98.47;102515.28;7394405;19;20035;-66
2022/01/15 10:07:59;;;;;;;25.60;12.63;;;;;;;0.54;98.47;102514.66;7392438;19;20019;-66
2022/01/15 10:10:28;;;;;;;24.10;11.43;;;;;;;0.59;98.75;102517.50;7394552;19;20011;-66
2022/01/15 10:12:57;;;;;;;24.15;10.88;;;;;;;0.62;98.44;102518.53;7394305;19;20445;-66
2022/01/15 10:15:28;;;;;;;23.13;10.35;;;;;;;0.67;98.70;102521.34;7394105;19;20015;-66
2022/01/15 10:17:56;;;;;;;25.40;9.90;;;;;;;0.73;98.60;102521.59;7392873;19;20023;-66
2022/01/15 10:20:26;;;;;;;23.95;10.95;;;;;;;0.80;98.48;102526.25;7394294;19;20018;-66
2022/01/15 10:22:56;;;;;;;29.67;10.95;;;;;;;0.87;98.53;102529.13;7393780;19;20479;-66
2022/01/15 10:25:25;;;;;;;29.90;11.35;;;;;;;0.92;98.56;102528.53;7394242;19;20011;-66
2022/01/15 10:27:54;;;;;;;22.85;10.20;;;;;;;1.00;98.48;102533.16;7398394;19;20040;-66
2022/01/15 10:30:26;;;;;;;23.52;10.55;;;;;;;1.06;98.47;102529.19;7400692;19;20029;-65
2022/01/15 10:32:59;;;;;;;26.27;8.32;;;;;;;1.11;98.35;102530.28;7401010;19;20017;-66
2022/01/15 10:35:29;;;;;;;23.40;7.90;;;;;;;1.18;98.37;102525.38;7400874;19;20381;-65
2022/01/15 10:38:00;;;;;;;20.10;7.50;;;;;;;1.26;98.56;102524.03;7399111;19;20022;-66
2022/01/15 10:40:30;;;;;;;20.17;7.72;;;;;;;1.39;98.46;102516.00;7401057;19;20015;-66
2022/01/15 10:43:00;;;;;;;18.70;6.10;;;;;;;1.51;97.94;102509.63;7400794;19;20014;-66
2022/01/15 10:45:34;;;;;;;26.40;8.30;;;;;;;1.58;98.14;102501.28;7400786;19;20014;-66
2022/01/15 10:48:08;;;;;;;22.52;7.07;;;;;;;1.65;97.78;102495.56;7401024;19;20017;-66
2022/01/15 10:50:38;;;;;;;25.35;7.07;;;;;;;1.71;97.28;102502.72;7400468;19;20383;-66
2022/01/15 10:53:10;;;;;;;21.73;6.55;;;;;;;1.70;97.53;102491.47;7400738;19;20015;-66
2022/01/15 10:55:40;;;;;;;24.65;7.20;;;;;;;1.82;97.15;102495.41;7399875;19;20455;-67
2022/01/15 10:58:11;;;;;;;23.30;6.40;;;;;;;1.86;97.12;102481.75;7398516;19;20488;-66
2022/01/15 11:00:42;;;;;;;15.82;6.82;;;;;;;1.88;96.97;102475.81;7398423;19;20035;-67
2022/01/15 11:03:16;;;;;;;24.30;6.70;;;;;;;1.93;96.93;102473.44;7401330;19;20033;-66
2022/01/15 11:05:45;;;;;;;24.17;6.57;;;;;;;1.96;97.12;102476.16;7399858;19;20483;-66
2022/01/15 11:08:19;;;;;;;21.77;6.63;;;;;;;1.99;96.97;102470.22;7400184;19;20015;-66
2022/01/15 11:10:51;;;;;;;24.17;7.30;;;;;;;2.02;96.44;102466.06;7399696;19;20483;-66
2022/01/15 11:13:22;;;;;;;23.85;7.20;;;;;;;2.04;96.45;102451.47;7400274;19;20022;-65
2022/01/15 11:15:54;;;;;;;26.00;7.72;;;;;;;2.02;96.45;102450.53;7399109;19;20365;-65
2022/01/15 11:18:27;;;;;;;27.88;6.88;;;;;;;2.09;96.52;102454.25;7397929;19;20015;-66
2022/01/15 11:20:57;;;;;;;23.77;6.57;;;;;;;2.12;96.02;102449.19;7400487;19;20022;-66
2022/01/15 11:23:27;;;;;;;24.05;6.25;;;;;;;2.15;96.06;102449.31;7400149;19;20029;-69
2022/01/15 11:25:58;;;;;;;37.30;13.80;;;;;;;2.19;96.33;102442.56;7399316;19;20022;-66
2022/01/15 11:28:28;;;;;;;22.70;7.07;;;;;;;2.24;96.40;102436.72;7399724;19;20015;-67
2022/01/15 11:30:58;;;;;;;23.13;6.88;;;;;;;2.25;96.24;102429.84;7399307;19;20018;-66
2022/01/15 11:33:32;;;;;;;22.63;5.60;;;;;;;2.35;95.63;102425.91;7398925;19;20025;-66
2022/01/15 11:36:00;;;;;;;;;;;;;;;2.42;95.57;102426.19;7399316;19;20041;-66
2022/01/15 11:38:46;;;;;;;24.20;5.70;;;;;;;2.52;95.55;102418.81;7396230;19;19953;-66
2022/01/15 11:41:42;;;;;;;23.05;4.93;;;;;;;2.61;95.48;102414.84;7398173;19;20476;-66
2022/01/15 11:44:14;;;;;;;22.55;4.90;;;;;;;2.70;95.41;102416.88;7398770;19;20018;-66
2022/01/15 11:46:46;;;;;;;21.65;5.40;;;;;;;2.77;94.92;102411.13;7397379;19;20014;-66